Terminal Aerodrome Forecast
Issued by NWS

Home | Current Version | Previous Version | Graphics & Text | Print | Product List | Glossary On
Versions: 1 2 3 4 5 6 7 8 9 10 11 12 13 14 15 16 17 18 19 20 21 22 23 24 25 26 27
000
FTUS43 KBIS 181100
TAFJMS
TAF
KJMS 181120Z 1812/1912 07009KT P6SM SKC
     FM181500 13011KT P6SM BKN090
     FM190200 24010KT P6SM -RA OVC060
     FM190400 29017G27KT P6SM -RA OVC060=

USA.gov is the U.S. government's official web portal to all federal, state and local government web resources and services.